Time;durP1;ratioP1;P1;durP2;ratioP2;P2;SDS_P1;SDS_P2;PMS_P1;PMS_P2;Temp;Humidity;BMP_temperature;BMP_pressure;BME280_temperature;BME280_humidity;BME280_pressure;Samples;Min_cycle;Max_cycle;Signal;HPM_P1;HPM_P2
2023/02/22 00:02:09;;;;;;;7.27;3.73;;;;;;;;;;769285;181;919217;-72
2023/02/22 00:04:19;;;;;;;10.03;4.43;;;;;;;;;;765183;183;816899;-72
2023/02/22 00:06:42;;;;;;;9.30;4.50;;;;;;;;;;771622;180;919196;-65
2023/02/22 00:09:09;;;;;;;7.47;4.43;;;;;;;;;;776902;181;914282;-67
2023/02/22 00:11:34;;;;;;;13.40;5.23;;;;;;;;;;773809;179;918560;-71
2023/02/22 00:14:01;;;;;;;7.13;3.90;;;;;;;;;;771235;179;917871;-65
2023/02/22 00:16:25;;;;;;;11.77;4.50;;;;;;;;;;773955;181;918431;-65
2023/02/22 00:18:52;;;;;;;8.90;3.20;;;;;;;;;;773089;181;918784;-72
2023/02/22 00:21:17;;;;;;;28.43;6.23;;;;;;;;;;770472;181;917132;-73
2023/02/22 00:23:45;;;;;;;13.57;3.97;;;;;;;;;;767524;181;922180;-71
2023/02/22 00:26:09;;;;;;;8.83;3.10;;;;;;;;;;776993;181;918975;-71
2023/02/22 00:28:35;;;;;;;10.60;3.53;;;;;;;;;;774456;181;925397;-66
2023/02/22 00:31:01;;;;;;;6.83;3.83;;;;;;;;;;768247;182;919314;-72
2023/02/22 00:33:27;;;;;;;9.50;3.17;;;;;;;;;;774958;181;919603;-71
2023/02/22 00:35:53;;;;;;;13.43;4.10;;;;;;;;;;769329;181;918396;-71
2023/02/22 00:38:18;;;;;;;6.93;3.70;;;;;;;;;;775126;180;915830;-65
2023/02/22 00:40:44;;;;;;;9.40;4.40;;;;;;;;;;775222;181;920198;-71
2023/02/22 00:43:10;;;;;;;7.27;4.03;;;;;;;;;;767282;182;904097;-65
2023/02/22 00:45:36;;;;;;;7.70;3.60;;;;;;;;;;768313;181;922689;-65
2023/02/22 00:48:02;;;;;;;8.80;3.97;;;;;;;;;;771589;181;939464;-66
2023/02/22 00:50:28;;;;;;;8.65;4.85;;;;;;;;;;775806;181;923756;-71
2023/02/22 00:52:53;;;;;;;5.20;3.00;;;;;;;;;;772334;181;1021287;-71
2023/02/22 00:55:19;;;;;;;6.87;3.30;;;;;;;;;;771947;181;921387;-66
2023/02/22 00:57:45;;;;;;;6.80;3.53;;;;;;;;;;778785;181;822666;-66
2023/02/22 01:00:11;;;;;;;9.83;3.77;;;;;;;;;;772632;179;921189;-65
2023/02/22 01:02:37;;;;;;;11.30;4.07;;;;;;;;;;776289;177;921532;-71
2023/02/22 01:05:03;;;;;;;8.80;4.37;;;;;;;;;;775586;181;909198;-66
2023/02/22 01:07:28;;;;;;;7.32;3.15;;;;;;;;;;769519;179;916216;-65
2023/02/22 01:09:54;;;;;;;6.57;3.43;;;;;;;;;;769163;182;823683;-71
2023/02/22 01:12:21;;;;;;;7.60;2.80;;;;;;;;;;771539;181;918569;-71
2023/02/22 01:14:46;;;;;;;7.73;3.10;;;;;;;;;;781935;179;622461;-66
2023/02/22 01:17:12;;;;;;;8.37;3.63;;;;;;;;;;775962;180;819499;-72
2023/02/22 01:19:41;;;;;;;7.43;3.50;;;;;;;;;;776386;180;818056;-72
2023/02/22 01:22:04;;;;;;;9.43;3.30;;;;;;;;;;780349;181;631424;-65
2023/02/22 01:24:29;;;;;;;7.17;2.93;;;;;;;;;;770310;178;914945;-66
2023/02/22 01:26:55;;;;;;;7.40;4.10;;;;;;;;;;774941;181;782478;-71
2023/02/22 01:29:21;;;;;;;8.30;3.60;;;;;;;;;;776426;181;919665;-73
2023/02/22 01:31:50;;;;;;;6.97;3.77;;;;;;;;;;771147;181;919233;-66
2023/02/22 01:34:15;;;;;;;5.80;3.83;;;;;;;;;;778382;180;817583;-73
2023/02/22 01:36:41;;;;;;;6.70;3.60;;;;;;;;;;770754;181;919183;-71
2023/02/22 01:39:09;;;;;;;26.05;13.82;;;;;;;;;;774487;179;918290;-71
2023/02/22 01:41:33;;;;;;;22.70;12.00;;;;;;;;;;772982;181;919631;-73
2023/02/22 01:43:59;;;;;;;8.77;4.73;;;;;;;;;;767436;179;926373;-71
2023/02/22 01:46:25;;;;;;;25.50;13.13;;;;;;;;;;774971;181;920372;-71
2023/02/22 01:48:50;;;;;;;14.07;7.40;;;;;;;;;;767529;182;919456;-72
2023/02/22 01:51:26;;;;;;;17.80;5.20;;;;;;;;;;768252;181;920281;-66
2023/02/22 01:53:55;;;;;;;12.80;7.10;;;;;;;;;;774261;180;926912;-73
2023/02/22 01:56:21;;;;;;;8.90;4.80;;;;;;;;;;779108;180;918622;-67
2023/02/22 01:58:46;;;;;;;10.30;4.33;;;;;;;;;;771141;181;919239;-75
2023/02/22 02:01:12;;;;;;;11.43;4.60;;;;;;;;;;764468;182;914039;-73
2023/02/22 02:03:38;;;;;;;8.10;4.20;;;;;;;;;;767657;183;916367;-74
2023/02/22 02:06:04;;;;;;;10.97;3.90;;;;;;;;;;764303;182;918333;-75
2023/02/22 02:08:48;;;;;;;11.77;5.05;;;;;;;;;;766570;182;919115;-67
2023/02/22 02:11:11;;;;;;;9.17;4.27;;;;;;;;;;767818;180;916280;-73
2023/02/22 02:13:36;;;;;;;27.70;16.70;;;;;;;;;;773954;182;914573;-67
2023/02/22 02:16:02;;;;;;;9.53;5.03;;;;;;;;;;767973;181;914312;-73
2023/02/22 02:18:28;;;;;;;10.67;5.40;;;;;;;;;;769201;181;920420;-74
2023/02/22 02:21:09;;;;;;;9.93;5.57;;;;;;;;;;772496;181;919417;-67
2023/02/22 02:23:50;;;;;;;13.20;5.13;;;;;;;;;;756876;182;926375;-68
2023/02/22 02:26:16;;;;;;;11.27;4.50;;;;;;;;;;752806;183;919082;-72
2023/02/22 02:28:59;;;;;;;8.70;4.43;;;;;;;;;;756936;184;918736;-73
2023/02/22 02:31:28;;;;;;;12.93;4.47;;;;;;;;;;760898;183;1023684;-68
2023/02/22 02:33:56;;;;;;;13.37;3.97;;;;;;;;;;764692;181;919377;-67
2023/02/22 02:36:22;;;;;;;14.90;3.93;;;;;;;;;;771876;181;918801;-73
2023/02/22 02:38:50;;;;;;;10.73;4.10;;;;;;;;;;776087;181;919215;-68
2023/02/22 02:41:16;;;;;;;5.70;3.67;;;;;;;;;;768665;181;917593;-74
2023/02/22 02:43:56;;;;;;;6.63;3.53;;;;;;;;;;766038;182;922795;-75
2023/02/22 02:46:23;;;;;;;9.60;4.00;;;;;;;;;;767183;181;918044;-73
2023/02/22 02:48:49;;;;;;;9.83;3.70;;;;;;;;;;771704;181;920425;-68
2023/02/22 02:51:15;;;;;;;4.75;3.22;;;;;;;;;;769952;180;1016744;-67
2023/02/22 02:53:41;;;;;;;5.77;3.83;;;;;;;;;;760002;183;918469;-67
2023/02/22 02:56:06;;;;;;;5.70;3.63;;;;;;;;;;767585;181;919537;-73
2023/02/22 02:58:32;;;;;;;7.00;3.97;;;;;;;;;;776379;180;816655;-73
2023/02/22 03:00:58;;;;;;;6.33;4.33;;;;;;;;;;774347;180;817195;-66
2023/02/22 03:03:26;;;;;;;7.50;4.23;;;;;;;;;;773926;181;919325;-67
2023/02/22 03:05:52;;;;;;;9.60;4.50;;;;;;;;;;773393;179;879008;-67
2023/02/22 03:08:24;;;;;;;6.67;3.80;;;;;;;;;;768522;180;921090;-68
2023/02/22 03:10:50;;;;;;;9.50;4.07;;;;;;;;;;769925;180;919420;-68
2023/02/22 03:13:15;;;;;;;7.43;4.00;;;;;;;;;;764682;180;918270;-73
2023/02/22 03:16:01;;;;;;;5.32;3.62;;;;;;;;;;770572;179;916996;-73
2023/02/22 03:18:24;;;;;;;8.60;3.50;;;;;;;;;;764871;181;1635672;-72
2023/02/22 03:20:52;;;;;;;10.40;4.33;;;;;;;;;;773051;180;915983;-73
2023/02/22 03:23:39;;;;;;;10.00;5.20;;;;;;;;;;774348;180;1019481;-73
2023/02/22 03:26:07;;;;;;;13.60;4.27;;;;;;;;;;768409;181;918903;-73
2023/02/22 03:28:33;;;;;;;5.33;3.30;;;;;;;;;;766819;182;920833;-73
2023/02/22 03:31:01;;;;;;;10.17;3.77;;;;;;;;;;771083;181;818769;-68
2023/02/22 03:33:32;;;;;;;7.77;4.10;;;;;;;;;;773421;180;1008809;-67
2023/02/22 03:35:55;;;;;;;14.90;5.20;;;;;;;;;;772233;181;919168;-68
2023/02/22 03:38:20;;;;;;;7.13;3.90;;;;;;;;;;776252;181;897354;-73
2023/02/22 03:40:46;;;;;;;8.93;4.90;;;;;;;;;;769480;182;814831;-73
2023/02/22 03:43:13;;;;;;;7.03;4.50;;;;;;;;;;766893;182;918203;-73
2023/02/22 03:45:37;;;;;;;8.33;3.90;;;;;;;;;;769632;180;919416;-72
2023/02/22 03:48:05;;;;;;;8.98;5.30;;;;;;;;;;777325;181;917919;-67
2023/02/22 03:50:30;;;;;;;13.93;4.90;;;;;;;;;;773001;181;917473;-75
2023/02/22 03:52:59;;;;;;;7.57;4.77;;;;;;;;;;773935;180;917882;-67
2023/02/22 03:55:27;;;;;;;8.00;5.03;;;;;;;;;;778060;180;918027;-68
2023/02/22 03:57:51;;;;;;;18.73;5.07;;;;;;;;;;764131;181;919007;-73
2023/02/22 04:00:17;;;;;;;11.00;5.10;;;;;;;;;;760634;183;919325;-73
2023/02/22 04:02:43;;;;;;;11.30;5.30;;;;;;;;;;767728;180;915705;-73
2023/02/22 04:05:08;;;;;;;10.33;5.67;;;;;;;;;;765057;183;919549;-73
2023/02/22 04:07:34;;;;;;;14.20;4.87;;;;;;;;;;770420;181;919954;-73
2023/02/22 04:10:02;;;;;;;13.52;4.60;;;;;;;;;;772854;181;873956;-73
2023/02/22 04:12:26;;;;;;;10.30;4.27;;;;;;;;;;774461;181;908954;-73
2023/02/22 04:14:52;;;;;;;9.30;5.20;;;;;;;;;;769263;181;919118;-67
2023/02/22 04:17:18;;;;;;;8.52;4.03;;;;;;;;;;769889;181;921170;-67
2023/02/22 04:19:44;;;;;;;9.13;4.80;;;;;;;;;;776046;179;920274;-69
2023/02/22 04:22:09;;;;;;;10.47;5.37;;;;;;;;;;764941;181;918811;-72
2023/02/22 04:24:35;;;;;;;16.90;7.00;;;;;;;;;;765814;182;1021899;-67
2023/02/22 04:27:02;;;;;;;16.13;6.27;;;;;;;;;;772090;181;916768;-67
2023/02/22 04:29:27;;;;;;;13.53;5.77;;;;;;;;;;762856;182;919071;-72
2023/02/22 04:31:53;;;;;;;15.90;6.20;;;;;;;;;;765261;182;918760;-67
2023/02/22 04:34:19;;;;;;;18.80;6.03;;;;;;;;;;766849;179;924778;-67
2023/02/22 04:36:44;;;;;;;10.73;6.00;;;;;;;;;;778390;180;816341;-66
2023/02/22 04:39:10;;;;;;;19.53;6.30;;;;;;;;;;772053;181;917902;-73
2023/02/22 04:41:36;;;;;;;7.43;4.10;;;;;;;;;;769276;180;918633;-72
2023/02/22 04:44:02;;;;;;;15.73;4.80;;;;;;;;;;779990;180;844257;-66
2023/02/22 04:46:28;;;;;;;13.17;4.10;;;;;;;;;;773423;181;894378;-66
2023/02/22 04:48:54;;;;;;;16.40;3.67;;;;;;;;;;773487;180;918220;-66
2023/02/22 04:51:20;;;;;;;18.93;4.73;;;;;;;;;;774918;181;794480;-72
2023/02/22 04:53:45;;;;;;;13.07;3.97;;;;;;;;;;774229;180;889907;-66
2023/02/22 04:56:11;;;;;;;10.25;4.28;;;;;;;;;;771789;181;866712;-74
2023/02/22 04:58:37;;;;;;;10.00;3.60;;;;;;;;;;770542;181;916456;-67
2023/02/22 05:01:03;;;;;;;12.10;3.87;;;;;;;;;;766020;179;817490;-67
2023/02/22 05:03:29;;;;;;;16.80;4.78;;;;;;;;;;768401;179;916384;-67
2023/02/22 05:05:55;;;;;;;11.23;3.77;;;;;;;;;;769705;181;1047665;-64
2023/02/22 05:08:20;;;;;;;28.67;14.97;;;;;;;;;;771884;181;918179;-72
2023/02/22 05:10:46;;;;;;;30.80;18.27;;;;;;;;;;769188;181;918705;-66
2023/02/22 05:13:12;;;;;;;19.30;8.77;;;;;;;;;;769465;181;921023;-72
2023/02/22 05:15:38;;;;;;;20.77;7.23;;;;;;;;;;776526;181;922029;-73
2023/02/22 05:18:04;;;;;;;17.10;5.57;;;;;;;;;;768442;179;919190;-67
2023/02/22 05:20:30;;;;;;;31.77;17.57;;;;;;;;;;766283;181;917408;-67
2023/02/22 05:22:55;;;;;;;26.43;17.87;;;;;;;;;;771526;181;918363;-67
2023/02/22 05:25:21;;;;;;;14.13;5.23;;;;;;;;;;763478;183;919213;-67
2023/02/22 05:27:48;;;;;;;11.63;4.60;;;;;;;;;;761721;181;918365;-66
2023/02/22 05:30:15;;;;;;;11.77;4.37;;;;;;;;;;767260;181;919316;-66
2023/02/22 05:32:40;;;;;;;10.63;4.70;;;;;;;;;;773673;181;817546;-66
2023/02/22 05:35:07;;;;;;;12.67;4.97;;;;;;;;;;767417;181;922344;-66
2023/02/22 05:37:32;;;;;;;11.63;4.73;;;;;;;;;;772856;180;764849;-66
2023/02/22 05:39:58;;;;;;;13.37;4.60;;;;;;;;;;774049;181;909939;-72
2023/02/22 05:42:23;;;;;;;9.63;4.80;;;;;;;;;;767651;180;925015;-67
2023/02/22 05:44:49;;;;;;;9.65;5.07;;;;;;;;;;770492;181;916090;-72
2023/02/22 05:47:15;;;;;;;15.98;4.95;;;;;;;;;;775657;180;919308;-72
2023/02/22 05:49:41;;;;;;;21.77;6.40;;;;;;;;;;765703;180;818824;-66
2023/02/22 05:52:07;;;;;;;13.03;6.20;;;;;;;;;;768982;179;917615;-74
2023/02/22 05:54:33;;;;;;;15.52;6.25;;;;;;;;;;767872;180;916781;-66
2023/02/22 05:56:59;;;;;;;17.40;9.70;;;;;;;;;;777282;181;629355;-66
2023/02/22 05:59:25;;;;;;;16.07;7.70;;;;;;;;;;772796;179;766681;-72
2023/02/22 06:01:50;;;;;;;22.53;8.77;;;;;;;;;;767868;181;926130;-72
2023/02/22 06:04:16;;;;;;;8.80;5.70;;;;;;;;;;774220;181;918946;-66
2023/02/22 06:06:42;;;;;;;17.03;7.67;;;;;;;;;;775666;180;660609;-66
2023/02/22 06:09:08;;;;;;;13.10;7.10;;;;;;;;;;770319;181;915541;-66
2023/02/22 06:11:34;;;;;;;15.03;6.43;;;;;;;;;;775872;181;915671;-72
2023/02/22 06:14:00;;;;;;;17.10;6.87;;;;;;;;;;773415;180;913965;-71
2023/02/22 06:16:25;;;;;;;14.20;8.00;;;;;;;;;;771513;179;920137;-72
2023/02/22 06:18:51;;;;;;;19.10;7.40;;;;;;;;;;765920;179;921030;-67
2023/02/22 06:21:17;;;;;;;13.63;6.70;;;;;;;;;;774944;181;919190;-72
2023/02/22 06:23:43;;;;;;;15.33;5.60;;;;;;;;;;764741;181;918598;-65
2023/02/22 06:26:09;;;;;;;10.93;5.87;;;;;;;;;;770039;181;919024;-72
2023/02/22 06:28:35;;;;;;;17.13;6.70;;;;;;;;;;772996;181;919038;-66
2023/02/22 06:31:01;;;;;;;18.20;6.30;;;;;;;;;;772658;179;819524;-66
2023/02/22 06:33:27;;;;;;;8.10;6.43;;;;;;;;;;773633;181;919272;-72
2023/02/22 06:35:53;;;;;;;14.30;7.00;;;;;;;;;;778924;181;910966;-66
2023/02/22 06:38:19;;;;;;;18.30;7.40;;;;;;;;;;772335;180;934696;-66
2023/02/22 06:40:45;;;;;;;13.70;5.37;;;;;;;;;;776226;178;920905;-65
2023/02/22 06:43:11;;;;;;;25.60;8.43;;;;;;;;;;766593;182;870991;-66
2023/02/22 06:45:37;;;;;;;19.60;5.87;;;;;;;;;;773167;181;817554;-67
2023/02/22 06:48:03;;;;;;;10.60;5.20;;;;;;;;;;770544;180;918001;-72
2023/02/22 06:50:29;;;;;;;12.30;4.73;;;;;;;;;;766900;182;918764;-66
2023/02/22 06:52:54;;;;;;;10.93;7.00;;;;;;;;;;778603;180;918994;-69
2023/02/22 06:55:20;;;;;;;16.63;4.63;;;;;;;;;;772336;180;916418;-72
2023/02/22 06:57:46;;;;;;;14.33;5.20;;;;;;;;;;771189;179;935732;-71
2023/02/22 07:00:13;;;;;;;18.43;6.20;;;;;;;;;;774505;182;916251;-73
2023/02/22 07:02:39;;;;;;;17.43;7.87;;;;;;;;;;768371;180;920205;-72
2023/02/22 07:05:05;;;;;;;13.38;9.40;;;;;;;;;;773948;181;918274;-72
2023/02/22 07:07:30;;;;;;;33.60;14.40;;;;;;;;;;768020;181;1020215;-71
2023/02/22 07:09:56;;;;;;;31.03;21.83;;;;;;;;;;767365;181;919054;-65
2023/02/22 07:12:22;;;;;;;32.47;13.70;;;;;;;;;;768746;181;917029;-65
2023/02/22 07:14:48;;;;;;;56.30;23.37;;;;;;;;;;772785;181;927926;-66
2023/02/22 07:17:14;;;;;;;45.53;17.13;;;;;;;;;;769675;181;907052;-72
2023/02/22 07:19:40;;;;;;;50.13;20.80;;;;;;;;;;771451;180;923709;-66
2023/02/22 07:22:06;;;;;;;61.40;22.50;;;;;;;;;;773572;180;920046;-66
2023/02/22 07:24:33;;;;;;;49.20;15.07;;;;;;;;;;778694;180;915932;-73
2023/02/22 07:26:57;;;;;;;52.50;20.30;;;;;;;;;;772642;181;1023442;-76
2023/02/22 07:29:23;;;;;;;75.17;28.80;;;;;;;;;;772652;180;918191;-72
2023/02/22 07:31:49;;;;;;;65.72;26.50;;;;;;;;;;762962;183;1020081;-67
2023/02/22 07:34:15;;;;;;;68.20;27.30;;;;;;;;;;761936;181;918780;-66
2023/02/22 07:36:41;;;;;;;73.17;30.13;;;;;;;;;;756193;182;911815;-66
2023/02/22 07:39:07;;;;;;;104.30;48.03;;;;;;;;;;765530;180;818338;-72
2023/02/22 07:41:33;;;;;;;20.17;8.63;;;;;;;;;;774406;179;921073;-72
2023/02/22 07:43:59;;;;;;;31.50;9.37;;;;;;;;;;768940;181;918569;-66
2023/02/22 07:46:24;;;;;;;15.30;4.97;;;;;;;;;;770309;181;1019989;-73
2023/02/22 07:48:50;;;;;;;15.50;6.30;;;;;;;;;;778050;181;907861;-65
2023/02/22 07:51:16;;;;;;;35.57;9.20;;;;;;;;;;772334;181;918149;-66
2023/02/22 07:53:42;;;;;;;20.55;6.70;;;;;;;;;;772788;181;919024;-73
2023/02/22 07:56:08;;;;;;;25.70;10.30;;;;;;;;;;769567;182;875069;-66
2023/02/22 07:58:34;;;;;;;10.87;4.83;;;;;;;;;;770365;181;919082;-72
2023/02/22 08:01:02;;;;;;;14.10;4.27;;;;;;;;;;768957;180;919750;-66
2023/02/22 08:03:28;;;;;;;17.20;3.70;;;;;;;;;;770681;180;917336;-66
2023/02/22 08:05:54;;;;;;;16.70;6.60;;;;;;;;;;777414;181;918025;-65
2023/02/22 08:08:20;;;;;;;13.87;4.50;;;;;;;;;;769659;179;1013271;-72
2023/02/22 08:10:46;;;;;;;13.37;4.00;;;;;;;;;;772130;178;917956;-66
2023/02/22 08:13:11;;;;;;;16.40;5.80;;;;;;;;;;776718;181;915308;-67
2023/02/22 08:15:37;;;;;;;15.40;4.37;;;;;;;;;;772473;179;919456;-66
2023/02/22 08:18:03;;;;;;;18.48;5.65;;;;;;;;;;767423;181;920637;-66
2023/02/22 08:20:30;;;;;;;11.73;4.22;;;;;;;;;;774799;181;918216;-67
2023/02/22 08:22:55;;;;;;;12.63;5.07;;;;;;;;;;775236;181;918421;-66
2023/02/22 08:25:22;;;;;;;14.17;4.13;;;;;;;;;;771457;180;816254;-75
2023/02/22 08:27:47;;;;;;;16.47;5.20;;;;;;;;;;773668;180;919013;-66
2023/02/22 08:30:14;;;;;;;11.40;5.20;;;;;;;;;;775702;181;919172;-66
2023/02/22 08:32:39;;;;;;;11.80;4.27;;;;;;;;;;774915;180;940016;-72
2023/02/22 08:35:06;;;;;;;8.20;3.50;;;;;;;;;;772827;181;1022545;-74
2023/02/22 08:37:31;;;;;;;14.10;5.43;;;;;;;;;;777460;181;917405;-66
2023/02/22 08:39:57;;;;;;;17.60;4.97;;;;;;;;;;768837;181;919235;-72
2023/02/22 08:42:23;;;;;;;17.20;5.27;;;;;;;;;;764228;183;919728;-74
2023/02/22 08:44:49;;;;;;;12.90;4.90;;;;;;;;;;769772;182;916829;-66
2023/02/22 08:47:15;;;;;;;14.90;4.93;;;;;;;;;;761431;184;917743;-73
2023/02/22 08:49:41;;;;;;;14.87;5.27;;;;;;;;;;766265;181;922767;-66
2023/02/22 08:52:06;;;;;;;16.23;4.20;;;;;;;;;;767967;181;1020379;-72
2023/02/22 08:54:32;;;;;;;10.20;3.70;;;;;;;;;;772362;181;712519;-66
2023/02/22 08:56:58;;;;;;;17.50;4.77;;;;;;;;;;768527;181;915185;-73
2023/02/22 08:59:24;;;;;;;13.07;5.03;;;;;;;;;;767578;181;918924;-67
2023/02/22 09:01:50;;;;;;;12.10;4.60;;;;;;;;;;773498;179;914627;-66
2023/02/22 09:04:16;;;;;;;17.03;5.77;;;;;;;;;;774277;179;919247;-73
2023/02/22 09:06:42;;;;;;;12.27;3.60;;;;;;;;;;763484;180;918498;-73
2023/02/22 09:09:07;;;;;;;6.30;3.30;;;;;;;;;;775010;181;877248;-67
2023/02/22 09:11:33;;;;;;;13.73;4.83;;;;;;;;;;772543;181;908479;-74
2023/02/22 09:13:59;;;;;;;13.70;4.85;;;;;;;;;;767301;182;919233;-67
2023/02/22 09:16:25;;;;;;;13.97;4.07;;;;;;;;;;770883;181;918938;-73
2023/02/22 09:18:51;;;;;;;16.30;4.17;;;;;;;;;;756871;184;918140;-73
2023/02/22 09:21:16;;;;;;;10.00;4.57;;;;;;;;;;760262;182;919551;-66
2023/02/22 09:23:42;;;;;;;11.80;4.50;;;;;;;;;;768222;181;918622;-67
2023/02/22 09:26:09;;;;;;;10.87;3.93;;;;;;;;;;775713;181;815997;-76
2023/02/22 09:28:34;;;;;;;8.90;3.80;;;;;;;;;;773742;180;918874;-74
2023/02/22 09:31:00;;;;;;;8.93;3.63;;;;;;;;;;773936;180;919315;-67
2023/02/22 09:33:26;;;;;;;12.33;3.57;;;;;;;;;;779242;181;918482;-73
2023/02/22 09:35:52;;;;;;;13.53;3.63;;;;;;;;;;766886;182;919413;-67
2023/02/22 09:38:17;;;;;;;8.53;4.10;;;;;;;;;;769979;179;879644;-67
2023/02/22 09:40:45;;;;;;;15.27;5.03;;;;;;;;;;767105;180;821502;-72
2023/02/22 09:43:17;;;;;;;16.73;4.67;;;;;;;;;;757784;185;915055;-73
2023/02/22 09:45:47;;;;;;;8.80;3.77;;;;;;;;;;776240;180;917770;-67
2023/02/22 09:48:14;;;;;;;11.23;3.60;;;;;;;;;;769028;180;915005;-74
2023/02/22 09:50:37;;;;;;;6.73;2.67;;;;;;;;;;777714;181;810536;-67
2023/02/22 09:53:04;;;;;;;11.53;3.83;;;;;;;;;;772664;181;917837;-67
2023/02/22 09:55:32;;;;;;;9.43;4.00;;;;;;;;;;768606;181;920059;-66
2023/02/22 09:57:56;;;;;;;6.57;3.30;;;;;;;;;;766526;182;915659;-67
2023/02/22 10:00:28;;;;;;;7.07;3.73;;;;;;;;;;773048;181;939769;-67
2023/02/22 10:02:52;;;;;;;14.47;5.27;;;;;;;;;;769538;181;916193;-74
2023/02/22 10:05:18;;;;;;;16.13;5.30;;;;;;;;;;773184;181;916775;-74
2023/02/22 10:07:45;;;;;;;12.70;5.47;;;;;;;;;;774305;180;916486;-74
2023/02/22 10:10:12;;;;;;;17.83;4.90;;;;;;;;;;766696;180;918781;-74
2023/02/22 10:12:53;;;;;;;15.00;5.07;;;;;;;;;;767980;180;909092;-74
2023/02/22 10:15:27;;;;;;;18.48;5.50;;;;;;;;;;772275;180;910831;-67
2023/02/22 10:17:57;;;;;;;19.53;5.73;;;;;;;;;;773760;181;917907;-74
2023/02/22 10:20:39;;;;;;;12.30;4.20;;;;;;;;;;766491;181;919434;-76
2023/02/22 10:23:08;;;;;;;9.63;4.40;;;;;;;;;;754018;185;919543;-72
2023/02/22 10:25:34;;;;;;;9.57;3.77;;;;;;;;;;762007;183;919186;-74
2023/02/22 10:28:02;;;;;;;9.73;3.70;;;;;;;;;;774941;180;919191;-76
2023/02/22 10:30:26;;;;;;;19.17;4.00;;;;;;;;;;765348;182;921801;-67
2023/02/22 10:32:52;;;;;;;20.50;5.65;;;;;;;;;;775366;180;1016167;-74
2023/02/22 10:35:23;;;;;;;8.30;4.20;;;;;;;;;;774066;179;917928;-68
2023/02/22 10:37:51;;;;;;;13.37;4.33;;;;;;;;;;772314;180;918198;-74
2023/02/22 10:40:16;;;;;;;11.57;3.87;;;;;;;;;;773104;181;919045;-67
2023/02/22 10:42:42;;;;;;;13.07;4.30;;;;;;;;;;777684;181;914947;-75
2023/02/22 10:45:08;;;;;;;16.33;4.10;;;;;;;;;;771490;181;919823;-67
2023/02/22 10:47:34;;;;;;;18.03;4.20;;;;;;;;;;772480;181;1019988;-74
2023/02/22 10:50:00;;;;;;;13.93;3.90;;;;;;;;;;777543;180;918312;-74
2023/02/22 10:52:28;;;;;;;21.03;5.40;;;;;;;;;;773255;181;920070;-74
2023/02/22 10:54:53;;;;;;;9.83;4.20;;;;;;;;;;769127;179;864964;-74
2023/02/22 10:57:19;;;;;;;13.82;5.37;;;;;;;;;;776615;180;814874;-72
2023/02/22 10:59:45;;;;;;;11.17;4.67;;;;;;;;;;769095;181;919648;-69
2023/02/22 11:02:29;;;;;;;17.43;5.10;;;;;;;;;;766453;182;920573;-68
2023/02/22 11:04:55;;;;;;;14.30;5.73;;;;;;;;;;767453;181;817210;-74
2023/02/22 11:07:24;;;;;;;11.30;4.27;;;;;;;;;;773082;181;918987;-74
2023/02/22 11:09:53;;;;;;;11.47;5.00;;;;;;;;;;772650;181;920637;-69
2023/02/22 11:12:19;;;;;;;18.67;7.23;;;;;;;;;;768915;182;914193;-75
2023/02/22 11:14:45;;;;;;;17.50;6.63;;;;;;;;;;768754;179;918216;-68
2023/02/22 11:17:12;;;;;;;11.57;4.03;;;;;;;;;;772845;181;867707;-69
2023/02/22 11:19:37;;;;;;;16.73;5.07;;;;;;;;;;765512;179;912418;-67
2023/02/22 11:22:13;;;;;;;18.87;8.07;;;;;;;;;;769615;179;914042;-68
2023/02/22 11:24:44;;;;;;;15.95;11.25;;;;;;;;;;773336;180;920382;-67
2023/02/22 11:27:10;;;;;;;12.50;4.80;;;;;;;;;;771615;180;1019410;-68
2023/02/22 11:29:35;;;;;;;11.63;4.43;;;;;;;;;;776010;181;919934;-68
2023/02/22 11:32:01;;;;;;;12.97;5.97;;;;;;;;;;769294;181;921886;-74
2023/02/22 11:34:30;;;;;;;12.67;4.30;;;;;;;;;;769023;181;919990;-68
2023/02/22 11:36:56;;;;;;;16.55;5.00;;;;;;;;;;779463;180;921252;-75
2023/02/22 11:39:23;;;;;;;14.87;3.93;;;;;;;;;;767380;181;1021893;-75
2023/02/22 11:41:49;;;;;;;15.63;5.87;;;;;;;;;;769134;182;914819;-68
2023/02/22 11:44:20;;;;;;;10.00;4.07;;;;;;;;;;770957;180;919181;-68
2023/02/22 11:46:46;;;;;;;12.10;5.17;;;;;;;;;;771605;182;821532;-68
2023/02/22 11:49:12;;;;;;;13.53;5.23;;;;;;;;;;774875;181;817715;-75
2023/02/22 11:51:43;;;;;;;12.77;5.37;;;;;;;;;;772692;180;945514;-75
2023/02/22 11:54:21;;;;;;;16.43;7.27;;;;;;;;;;772210;180;919321;-75
2023/02/22 11:56:42;;;;;;;17.77;4.73;;;;;;;;;;774603;179;815250;-73
2023/02/22 11:59:12;;;;;;;15.00;5.40;;;;;;;;;;771376;182;917997;-67
2023/02/22 12:01:38;;;;;;;14.60;5.40;;;;;;;;;;767257;182;1020075;-69
2023/02/22 12:04:22;;;;;;;15.20;4.93;;;;;;;;;;773048;181;918709;-75
2023/02/22 12:06:50;;;;;;;18.23;5.97;;;;;;;;;;776080;179;949005;-68
2023/02/22 12:09:17;;;;;;;16.37;7.23;;;;;;;;;;771280;181;1016175;-77
2023/02/22 12:11:45;;;;;;;16.90;8.30;;;;;;;;;;769470;180;1009457;-68
2023/02/22 12:14:18;;;;;;;12.30;5.90;;;;;;;;;;766273;182;921757;-67
2023/02/22 12:16:44;;;;;;;15.37;5.30;;;;;;;;;;774198;180;915524;-65
2023/02/22 12:19:10;;;;;;;38.40;13.70;;;;;;;;;;770863;181;925712;-68
2023/02/22 12:21:36;;;;;;;39.43;15.30;;;;;;;;;;762389;181;919593;-75
2023/02/22 12:24:02;;;;;;;45.97;19.80;;;;;;;;;;763557;181;919320;-68
2023/02/22 12:26:32;;;;;;;16.67;6.90;;;;;;;;;;770941;180;918750;-68
2023/02/22 12:28:58;;;;;;;16.90;8.13;;;;;;;;;;772111;180;915827;-67
2023/02/22 12:31:27;;;;;;;17.33;6.23;;;;;;;;;;768104;181;920572;-67
2023/02/22 12:33:54;;;;;;;13.30;6.37;;;;;;;;;;769369;181;918306;-68
2023/02/22 12:36:20;;;;;;;15.13;6.93;;;;;;;;;;778569;180;819332;-75
2023/02/22 12:38:46;;;;;;;10.87;3.97;;;;;;;;;;772488;181;716805;-75
2023/02/22 12:41:28;;;;;;;13.93;6.13;;;;;;;;;;766656;181;918444;-68
2023/02/22 12:44:08;;;;;;;12.00;5.63;;;;;;;;;;768863;179;917311;-69
2023/02/22 12:46:43;;;;;;;13.70;4.80;;;;;;;;;;769000;180;920000;-75
2023/02/22 12:49:27;;;;;;;8.93;4.40;;;;;;;;;;768554;181;816592;-76
2023/02/22 12:51:53;;;;;;;11.10;5.40;;;;;;;;;;781352;175;924957;-75
2023/02/22 12:54:24;;;;;;;13.23;5.57;;;;;;;;;;772018;180;910117;-68
2023/02/22 12:56:50;;;;;;;13.93;4.90;;;;;;;;;;771700;179;920367;-69
2023/02/22 12:59:19;;;;;;;9.40;5.00;;;;;;;;;;775153;179;917043;-75
2023/02/22 13:01:44;;;;;;;8.90;3.73;;;;;;;;;;775544;180;913233;-74
2023/02/22 13:04:10;;;;;;;9.73;4.60;;;;;;;;;;769612;179;919993;-68
2023/02/22 13:06:42;;;;;;;9.48;3.87;;;;;;;;;;765582;179;919889;-68
2023/02/22 13:09:14;;;;;;;15.30;6.30;;;;;;;;;;769710;181;919084;-75
2023/02/22 13:11:46;;;;;;;17.90;6.33;;;;;;;;;;768607;181;919375;-68
2023/02/22 13:14:18;;;;;;;13.40;5.30;;;;;;;;;;773238;178;917061;-68
2023/02/22 13:16:54;;;;;;;9.40;3.53;;;;;;;;;;765909;182;914234;-68
2023/02/22 13:19:35;;;;;;;11.23;5.50;;;;;;;;;;774747;180;945184;-75
2023/02/22 13:22:01;;;;;;;11.83;5.30;;;;;;;;;;774553;180;917080;-69
2023/02/22 13:24:29;;;;;;;9.83;5.27;;;;;;;;;;771698;180;818625;-68
2023/02/22 13:27:03;;;;;;;13.50;4.63;;;;;;;;;;776583;180;1021283;-76
2023/02/22 13:29:30;;;;;;;8.00;3.23;;;;;;;;;;769953;181;817711;-69
2023/02/22 13:32:13;;;;;;;13.00;4.80;;;;;;;;;;768724;180;814698;-69
2023/02/22 13:34:43;;;;;;;11.47;4.40;;;;;;;;;;769605;181;920077;-68
2023/02/22 13:37:11;;;;;;;13.27;4.60;;;;;;;;;;764293;180;919336;-69
2023/02/22 13:39:44;;;;;;;7.53;3.57;;;;;;;;;;765911;180;919065;-75
2023/02/22 13:42:26;;;;;;;14.43;4.23;;;;;;;;;;773328;179;817172;-68
2023/02/22 13:44:52;;;;;;;15.90;4.93;;;;;;;;;;761691;182;918832;-68
2023/02/22 13:47:33;;;;;;;7.80;4.03;;;;;;;;;;765714;183;919248;-67
2023/02/22 13:49:59;;;;;;;8.57;3.60;;;;;;;;;;766064;180;936497;-76
2023/02/22 13:52:25;;;;;;;5.23;3.47;;;;;;;;;;770282;180;815900;-76
2023/02/22 13:54:53;;;;;;;8.17;3.47;;;;;;;;;;775342;181;916471;-75
2023/02/22 13:57:20;;;;;;;10.97;3.90;;;;;;;;;;770811;181;918212;-68
2023/02/22 13:59:46;;;;;;;8.00;3.50;;;;;;;;;;767654;181;914609;-68
2023/02/22 14:02:18;;;;;;;7.07;4.40;;;;;;;;;;770135;180;868707;-75
2023/02/22 14:04:43;;;;;;;11.87;6.03;;;;;;;;;;775355;181;841556;-76
2023/02/22 14:07:15;;;;;;;24.40;12.67;;;;;;;;;;768879;181;918137;-68
2023/02/22 14:09:44;;;;;;;22.80;7.20;;;;;;;;;;772332;180;915558;-66
2023/02/22 14:12:08;;;;;;;14.90;7.00;;;;;;;;;;771453;180;919607;-68
2023/02/22 14:14:34;;;;;;;15.57;6.70;;;;;;;;;;776153;181;913854;-76
2023/02/22 14:17:07;;;;;;;16.30;7.80;;;;;;;;;;773296;180;915668;-68
2023/02/22 14:19:33;;;;;;;8.13;4.50;;;;;;;;;;765632;180;939698;-67